sensor_id;sensor_type;location;lat;lon;timestamp;pressure;altitude;pressure_sealevel;temperature
32039;BMP280;18549;42.286;22.688;2023-04-05T00:02:19;95108.44;;;9.81
32039;BMP280;18549;42.286;22.688;2023-04-05T00:04:46;95102.81;;;9.79
32039;BMP280;18549;42.286;22.688;2023-04-05T00:07:17;95106.50;;;9.73
32039;BMP280;18549;42.286;22.688;2023-04-05T00:09:46;95101.28;;;9.65
32039;BMP280;18549;42.286;22.688;2023-04-05T00:12:13;95099.78;;;9.63
32039;BMP280;18549;42.286;22.688;2023-04-05T00:14:40;95100.91;;;9.59
32039;BMP280;18549;42.286;22.688;2023-04-05T00:17:08;95102.47;;;9.60
32039;BMP280;18549;42.286;22.688;2023-04-05T00:19:35;95101.59;;;9.61
32039;BMP280;18549;42.286;22.688;2023-04-05T00:22:03;95107.34;;;9.61
32039;BMP280;18549;42.286;22.688;2023-04-05T00:24:30;95106.72;;;9.58
32039;BMP280;18549;42.286;22.688;2023-04-05T00:26:58;95101.41;;;9.52
32039;BMP280;18549;42.286;22.688;2023-04-05T00:29:26;95104.09;;;9.49
32039;BMP280;18549;42.286;22.688;2023-04-05T00:31:53;95105.56;;;9.51
32039;BMP280;18549;42.286;22.688;2023-04-05T00:34:21;95109.94;;;9.48
32039;BMP280;18549;42.286;22.688;2023-04-05T00:36:48;95108.63;;;9.54
32039;BMP280;18549;42.286;22.688;2023-04-05T00:39:15;95111.88;;;9.55
32039;BMP280;18549;42.286;22.688;2023-04-05T00:41:42;95119.72;;;9.49
32039;BMP280;18549;42.286;22.688;2023-04-05T00:44:10;95122.87;;;9.51
32039;BMP280;18549;42.286;22.688;2023-04-05T00:46:37;95123.69;;;9.39
32039;BMP280;18549;42.286;22.688;2023-04-05T00:49:05;95127.94;;;9.37
32039;BMP280;18549;42.286;22.688;2023-04-05T00:51:33;95130.91;;;9.42
32039;BMP280;18549;42.286;22.688;2023-04-05T00:54:01;95122.69;;;9.42
32039;BMP280;18549;42.286;22.688;2023-04-05T00:56:29;95135.84;;;9.42
32039;BMP280;18549;42.286;22.688;2023-04-05T00:58:56;95136.44;;;9.46
32039;BMP280;18549;42.286;22.688;2023-04-05T01:01:24;95129.59;;;9.49
32039;BMP280;18549;42.286;22.688;2023-04-05T01:03:54;95124.00;;;9.47
32039;BMP280;18549;42.286;22.688;2023-04-05T01:06:42;95132.97;;;9.48
32039;BMP280;18549;42.286;22.688;2023-04-05T01:09:19;95130.22;;;9.53
32039;BMP280;18549;42.286;22.688;2023-04-05T01:11:51;95133.25;;;9.56
32039;BMP280;18549;42.286;22.688;2023-04-05T01:14:20;95136.53;;;9.56
32039;BMP280;18549;42.286;22.688;2023-04-05T01:16:47;95150.00;;;9.53
32039;BMP280;18549;42.286;22.688;2023-04-05T01:19:15;95144.25;;;9.52
32039;BMP280;18549;42.286;22.688;2023-04-05T01:22:04;95148.31;;;9.53
32039;BMP280;18549;42.286;22.688;2023-04-05T01:24:50;95151.78;;;9.51
32039;BMP280;18549;42.286;22.688;2023-04-05T01:27:32;95149.59;;;9.46
32039;BMP280;18549;42.286;22.688;2023-04-05T01:30:08;95155.44;;;9.45
32039;BMP280;18549;42.286;22.688;2023-04-05T01:32:46;95157.62;;;9.50
32039;BMP280;18549;42.286;22.688;2023-04-05T01:35:21;95160.19;;;9.48
32039;BMP280;18549;42.286;22.688;2023-04-05T01:37:54;95164.16;;;9.38
32039;BMP280;18549;42.286;22.688;2023-04-05T01:40:23;95153.59;;;9.36
32039;BMP280;18549;42.286;22.688;2023-04-05T01:42:50;95159.22;;;9.38
32039;BMP280;18549;42.286;22.688;2023-04-05T01:45:18;95154.84;;;9.42
32039;BMP280;18549;42.286;22.688;2023-04-05T01:47:45;95158.03;;;9.44
32039;BMP280;18549;42.286;22.688;2023-04-05T01:50:12;95158.63;;;9.47
32039;BMP280;18549;42.286;22.688;2023-04-05T01:52:39;95148.81;;;9.46
32039;BMP280;18549;42.286;22.688;2023-04-05T01:55:06;95157.72;;;9.48
32039;BMP280;18549;42.286;22.688;2023-04-05T01:57:33;95157.50;;;9.51
32039;BMP280;18549;42.286;22.688;2023-04-05T02:00:00;95152.47;;;9.53
32039;BMP280;18549;42.286;22.688;2023-04-05T02:02:28;95159.09;;;9.52
32039;BMP280;18549;42.286;22.688;2023-04-05T02:04:55;95157.41;;;9.53
32039;BMP280;18549;42.286;22.688;2023-04-05T02:07:22;95154.16;;;9.52
32039;BMP280;18549;42.286;22.688;2023-04-05T02:09:51;95159.78;;;9.42
32039;BMP280;18549;42.286;22.688;2023-04-05T02:12:18;95152.28;;;9.43
32039;BMP280;18549;42.286;22.688;2023-04-05T02:14:45;95147.34;;;9.43
32039;BMP280;18549;42.286;22.688;2023-04-05T02:17:12;95156.31;;;9.44
32039;BMP280;18549;42.286;22.688;2023-04-05T02:19:41;95158.03;;;9.44
32039;BMP280;18549;42.286;22.688;2023-04-05T02:22:11;95160.41;;;9.45
32039;BMP280;18549;42.286;22.688;2023-04-05T02:24:38;95166.22;;;9.44
32039;BMP280;18549;42.286;22.688;2023-04-05T02:27:05;95168.69;;;9.44
32039;BMP280;18549;42.286;22.688;2023-04-05T02:29:32;95164.66;;;9.43
32039;BMP280;18549;42.286;22.688;2023-04-05T02:32:00;95166.44;;;9.41
32039;BMP280;18549;42.286;22.688;2023-04-05T02:34:27;95169.50;;;9.32
32039;BMP280;18549;42.286;22.688;2023-04-05T02:36:55;95170.88;;;9.36
32039;BMP280;18549;42.286;22.688;2023-04-05T02:39:23;95157.84;;;9.34
32039;BMP280;18549;42.286;22.688;2023-04-05T02:41:50;95172.47;;;9.37
32039;BMP280;18549;42.286;22.688;2023-04-05T02:44:17;95164.16;;;9.38
32039;BMP280;18549;42.286;22.688;2023-04-05T02:46:44;95169.13;;;9.38
32039;BMP280;18549;42.286;22.688;2023-04-05T02:49:11;95170.59;;;9.41
32039;BMP280;18549;42.286;22.688;2023-04-05T02:51:38;95169.13;;;9.38
32039;BMP280;18549;42.286;22.688;2023-04-05T02:54:06;95172.66;;;9.34
32039;BMP280;18549;42.286;22.688;2023-04-05T02:56:33;95170.09;;;9.36
32039;BMP280;18549;42.286;22.688;2023-04-05T02:59:01;95167.44;;;9.39
32039;BMP280;18549;42.286;22.688;2023-04-05T03:01:28;95162.56;;;9.37
32039;BMP280;18549;42.286;22.688;2023-04-05T03:03:56;95163.47;;;9.36
32039;BMP280;18549;42.286;22.688;2023-04-05T03:06:23;95167.13;;;9.31
32039;BMP280;18549;42.286;22.688;2023-04-05T03:08:51;95163.84;;;9.30
32039;BMP280;18549;42.286;22.688;2023-04-05T03:11:19;95165.47;;;9.31
32039;BMP280;18549;42.286;22.688;2023-04-05T03:13:46;95165.94;;;9.24
32039;BMP280;18549;42.286;22.688;2023-04-05T03:16:13;95174.06;;;9.14
32039;BMP280;18549;42.286;22.688;2023-04-05T03:18:40;95178.31;;;9.12
32039;BMP280;18549;42.286;22.688;2023-04-05T03:21:10;95186.63;;;9.11
32039;BMP280;18549;42.286;22.688;2023-04-05T03:23:58;95173.28;;;9.13
32039;BMP280;18549;42.286;22.688;2023-04-05T03:26:27;95189.88;;;9.11
32039;BMP280;18549;42.286;22.688;2023-04-05T03:28:54;95189.56;;;9.03
32039;BMP280;18549;42.286;22.688;2023-04-05T03:31:20;95189.34;;;8.94
32039;BMP280;18549;42.286;22.688;2023-04-05T03:33:47;95194.13;;;8.97
32039;BMP280;18549;42.286;22.688;2023-04-05T03:36:14;95194.63;;;9.02
32039;BMP280;18549;42.286;22.688;2023-04-05T03:38:43;95194.63;;;9.02
32039;BMP280;18549;42.286;22.688;2023-04-05T03:41:10;95186.59;;;8.98
32039;BMP280;18549;42.286;22.688;2023-04-05T03:43:38;95188.88;;;9.01
32039;BMP280;18549;42.286;22.688;2023-04-05T03:46:05;95193.72;;;9.03
32039;BMP280;18549;42.286;22.688;2023-04-05T03:48:32;95203.53;;;9.04
32039;BMP280;18549;42.286;22.688;2023-04-05T03:50:59;95195.31;;;9.04
32039;BMP280;18549;42.286;22.688;2023-04-05T03:53:26;95199.37;;;9.05
32039;BMP280;18549;42.286;22.688;2023-04-05T03:55:53;95200.94;;;9.06
32039;BMP280;18549;42.286;22.688;2023-04-05T03:58:20;95195.12;;;9.07
32039;BMP280;18549;42.286;22.688;2023-04-05T04:00:49;95196.81;;;9.06
32039;BMP280;18549;42.286;22.688;2023-04-05T04:03:17;95196.19;;;9.03
32039;BMP280;18549;42.286;22.688;2023-04-05T04:05:45;95195.41;;;9.02
32039;BMP280;18549;42.286;22.688;2023-04-05T04:08:12;95200.44;;;9.01
32039;BMP280;18549;42.286;22.688;2023-04-05T04:10:39;95199.56;;;9.02
32039;BMP280;18549;42.286;22.688;2023-04-05T04:13:06;95206.87;;;9.03
32039;BMP280;18549;42.286;22.688;2023-04-05T04:15:33;95206.37;;;8.98
32039;BMP280;18549;42.286;22.688;2023-04-05T04:18:01;95198.16;;;8.98
32039;BMP280;18549;42.286;22.688;2023-04-05T04:20:28;95204.69;;;8.99
32039;BMP280;18549;42.286;22.688;2023-04-05T04:22:56;95203.12;;;8.98
32039;BMP280;18549;42.286;22.688;2023-04-05T04:25:23;95212.09;;;8.99
32039;BMP280;18549;42.286;22.688;2023-04-05T04:27:51;95208.84;;;8.98
32039;BMP280;18549;42.286;22.688;2023-04-05T04:30:18;95207.34;;;8.96
32039;BMP280;18549;42.286;22.688;2023-04-05T04:32:47;95213.38;;;8.92
32039;BMP280;18549;42.286;22.688;2023-04-05T04:35:19;95212.59;;;8.91
32039;BMP280;18549;42.286;22.688;2023-04-05T04:37:51;95219.12;;;8.92
32039;BMP280;18549;42.286;22.688;2023-04-05T04:40:19;95227.00;;;8.85
32039;BMP280;18549;42.286;22.688;2023-04-05T04:42:47;95228.59;;;8.86
32039;BMP280;18549;42.286;22.688;2023-04-05T04:45:15;95220.28;;;8.87
32039;BMP280;18549;42.286;22.688;2023-04-05T04:47:43;95217.13;;;8.85
32039;BMP280;18549;42.286;22.688;2023-04-05T04:50:11;95217.94;;;8.86
32039;BMP280;18549;42.286;22.688;2023-04-05T04:52:40;95227.00;;;8.85
32039;BMP280;18549;42.286;22.688;2023-04-05T04:55:08;95223.84;;;8.83
32039;BMP280;18549;42.286;22.688;2023-04-05T04:57:38;95222.19;;;8.84
32039;BMP280;18549;42.286;22.688;2023-04-05T05:00:06;95219.72;;;8.84
32039;BMP280;18549;42.286;22.688;2023-04-05T05:02:37;95221.47;;;8.82
32039;BMP280;18549;42.286;22.688;2023-04-05T05:05:05;95231.44;;;8.80
32039;BMP280;18549;42.286;22.688;2023-04-05T05:07:33;95235.31;;;8.72
32039;BMP280;18549;42.286;22.688;2023-04-05T05:10:01;95234.47;;;8.71
32039;BMP280;18549;42.286;22.688;2023-04-05T05:12:30;95229.53;;;8.71
32039;BMP280;18549;42.286;22.688;2023-04-05T05:14:57;95233.00;;;8.69
32039;BMP280;18549;42.286;22.688;2023-04-05T05:17:24;95239.34;;;8.73
32039;BMP280;18549;42.286;22.688;2023-04-05T05:19:51;95236.94;;;8.71
32039;BMP280;18549;42.286;22.688;2023-04-05T05:22:18;95236.09;;;8.72
32039;BMP280;18549;42.286;22.688;2023-04-05T05:24:45;95240.81;;;8.75
32039;BMP280;18549;42.286;22.688;2023-04-05T05:27:13;95245.97;;;8.72
32039;BMP280;18549;42.286;22.688;2023-04-05T05:29:40;95250.28;;;8.69
32039;BMP280;18549;42.286;22.688;2023-04-05T05:32:07;95246.13;;;8.69
32039;BMP280;18549;42.286;22.688;2023-04-05T05:34:39;95247.75;;;8.70
32039;BMP280;18549;42.286;22.688;2023-04-05T05:37:06;95251.63;;;8.74
32039;BMP280;18549;42.286;22.688;2023-04-05T05:39:34;95252.13;;;8.79
32039;BMP280;18549;42.286;22.688;2023-04-05T05:42:00;95243.81;;;8.80
32039;BMP280;18549;42.286;22.688;2023-04-05T05:44:29;95246.97;;;8.82
32039;BMP280;18549;42.286;22.688;2023-04-05T05:46:56;95253.31;;;8.86
32039;BMP280;18549;42.286;22.688;2023-04-05T05:49:23;95253.13;;;8.89
32039;BMP280;18549;42.286;22.688;2023-04-05T05:51:50;95250.44;;;8.92
32039;BMP280;18549;42.286;22.688;2023-04-05T05:54:18;95252.34;;;8.88
32039;BMP280;18549;42.286;22.688;2023-04-05T05:56:45;95250.84;;;8.86
32039;BMP280;18549;42.286;22.688;2023-04-05T05:59:11;95250.06;;;8.86
32039;BMP280;18549;42.286;22.688;2023-04-05T06:01:40;95254.88;;;8.87
32039;BMP280;18549;42.286;22.688;2023-04-05T06:04:11;95254.09;;;8.87
32039;BMP280;18549;42.286;22.688;2023-04-05T06:06:38;95259.41;;;8.81
32039;BMP280;18549;42.286;22.688;2023-04-05T06:09:05;95256.66;;;8.85
32039;BMP280;18549;42.286;22.688;2023-04-05T06:11:31;95261.81;;;8.82
32039;BMP280;18549;42.286;22.688;2023-04-05T06:13:58;95256.16;;;8.80
32039;BMP280;18549;42.286;22.688;2023-04-05T06:16:25;95262.50;;;8.84
32039;BMP280;18549;42.286;22.688;2023-04-05T06:18:53;95257.28;;;8.88
32039;BMP280;18549;42.286;22.688;2023-04-05T06:21:21;95263.44;;;8.95
32039;BMP280;18549;42.286;22.688;2023-04-05T06:23:48;95258.81;;;8.77
32039;BMP280;18549;42.286;22.688;2023-04-05T06:26:16;95267.81;;;8.78
32039;BMP280;18549;42.286;22.688;2023-04-05T06:28:45;95268.22;;;8.85
32039;BMP280;18549;42.286;22.688;2023-04-05T06:31:13;95272.09;;;8.88
32039;BMP280;18549;42.286;22.688;2023-04-05T06:33:41;95267.09;;;8.76
32039;BMP280;18549;42.286;22.688;2023-04-05T06:36:12;95271.25;;;8.76
32039;BMP280;18549;42.286;22.688;2023-04-05T06:38:39;95273.25;;;8.83
32039;BMP280;18549;42.286;22.688;2023-04-05T06:41:05;95276.81;;;8.79
32039;BMP280;18549;42.286;22.688;2023-04-05T06:43:32;95273.66;;;8.77
32039;BMP280;18549;42.286;22.688;2023-04-05T06:46:00;95273.44;;;8.80
32039;BMP280;18549;42.286;22.688;2023-04-05T06:48:27;95273.09;;;8.86
32039;BMP280;18549;42.286;22.688;2023-04-05T06:50:58;95276.59;;;8.70
32039;BMP280;18549;42.286;22.688;2023-04-05T06:53:26;95286.66;;;8.67
32039;BMP280;18549;42.286;22.688;2023-04-05T06:55:54;95289.03;;;8.68
32039;BMP280;18549;42.286;22.688;2023-04-05T06:58:21;95292.00;;;8.73
32039;BMP280;18549;42.286;22.688;2023-04-05T07:00:48;95289.19;;;8.79
32039;BMP280;18549;42.286;22.688;2023-04-05T07:03:15;95288.00;;;8.85
32039;BMP280;18549;42.286;22.688;2023-04-05T07:05:49;95296.19;;;8.85
32039;BMP280;18549;42.286;22.688;2023-04-05T07:08:17;95299.56;;;8.84
32039;BMP280;18549;42.286;22.688;2023-04-05T07:10:46;95299.38;;;8.87
32039;BMP280;18549;42.286;22.688;2023-04-05T07:13:13;95302.88;;;8.97
32039;BMP280;18549;42.286;22.688;2023-04-05T07:15:41;95304.47;;;8.98
32039;BMP280;18549;42.286;22.688;2023-04-05T07:18:08;95311.50;;;9.04
32039;BMP280;18549;42.286;22.688;2023-04-05T07:20:35;95311.50;;;9.04
32039;BMP280;18549;42.286;22.688;2023-04-05T07:23:02;95316.66;;;9.13
32039;BMP280;18549;42.286;22.688;2023-04-05T07:25:30;95313.37;;;9.13
32039;BMP280;18549;42.286;22.688;2023-04-05T07:27:58;95316.75;;;9.12
32039;BMP280;18549;42.286;22.688;2023-04-05T07:30:26;95321.00;;;9.10
32039;BMP280;18549;42.286;22.688;2023-04-05T07:32:53;95319.94;;;9.14
32039;BMP280;18549;42.286;22.688;2023-04-05T07:35:20;95321.91;;;9.21
32039;BMP280;18549;42.286;22.688;2023-04-05T07:37:46;95315.91;;;9.25
32039;BMP280;18549;42.286;22.688;2023-04-05T07:40:13;95315.22;;;9.35
32039;BMP280;18549;42.286;22.688;2023-04-05T07:42:40;95314.37;;;9.10
32039;BMP280;18549;42.286;22.688;2023-04-05T07:45:09;95320.34;;;8.94
32039;BMP280;18549;42.286;22.688;2023-04-05T07:47:36;95321.41;;;8.90
32039;BMP280;18549;42.286;22.688;2023-04-05T07:50:03;95320.34;;;8.94
32039;BMP280;18549;42.286;22.688;2023-04-05T07:52:31;95333.56;;;9.07
32039;BMP280;18549;42.286;22.688;2023-04-05T07:54:58;95323.38;;;8.85
32039;BMP280;18549;42.286;22.688;2023-04-05T07:57:25;95326.34;;;9.04
32039;BMP280;18549;42.286;22.688;2023-04-05T07:59:52;95322.75;;;8.95
32039;BMP280;18549;42.286;22.688;2023-04-05T08:02:21;95318.03;;;9.17
32039;BMP280;18549;42.286;22.688;2023-04-05T08:04:48;95328.47;;;9.34
32039;BMP280;18549;42.286;22.688;2023-04-05T08:07:15;95321.47;;;9.41
32039;BMP280;18549;42.286;22.688;2023-04-05T08:09:42;95321.69;;;9.50
32039;BMP280;18549;42.286;22.688;2023-04-05T08:12:08;95316.41;;;9.42
32039;BMP280;18549;42.286;22.688;2023-04-05T08:14:36;95315.13;;;9.49
32039;BMP280;18549;42.286;22.688;2023-04-05T08:17:03;95318.78;;;9.56
32039;BMP280;18549;42.286;22.688;2023-04-05T08:19:31;95322.38;;;9.52
32039;BMP280;18549;42.286;22.688;2023-04-05T08:22:01;95322.66;;;9.60
32039;BMP280;18549;42.286;22.688;2023-04-05T08:24:28;95327.81;;;9.57
32039;BMP280;18549;42.286;22.688;2023-04-05T08:26:55;95331.25;;;9.42
32039;BMP280;18549;42.286;22.688;2023-04-05T08:29:22;95331.38;;;9.15
32039;BMP280;18549;42.286;22.688;2023-04-05T08:31:49;95330.06;;;9.35
32039;BMP280;18549;42.286;22.688;2023-04-05T08:34:16;95330.19;;;9.46
32039;BMP280;18549;42.286;22.688;2023-04-05T08:36:44;95331.16;;;9.56
32039;BMP280;18549;42.286;22.688;2023-04-05T08:39:11;95327.63;;;9.60
32039;BMP280;18549;42.286;22.688;2023-04-05T08:41:40;95331.19;;;9.68
32039;BMP280;18549;42.286;22.688;2023-04-05T08:44:14;95322.25;;;9.41
32039;BMP280;18549;42.286;22.688;2023-04-05T08:46:42;95320.00;;;9.51
32039;BMP280;18549;42.286;22.688;2023-04-05T08:49:09;95329.94;;;9.24
32039;BMP280;18549;42.286;22.688;2023-04-05T08:51:36;95326.66;;;9.12
32039;BMP280;18549;42.286;22.688;2023-04-05T08:54:06;95335.28;;;9.31
32039;BMP280;18549;42.286;22.688;2023-04-05T08:56:34;95322.47;;;9.51
32039;BMP280;18549;42.286;22.688;2023-04-05T08:59:02;95329.31;;;9.59
32039;BMP280;18549;42.286;22.688;2023-04-05T09:01:31;95327.78;;;9.45
32039;BMP280;18549;42.286;22.688;2023-04-05T09:04:00;95335.53;;;9.53
32039;BMP280;18549;42.286;22.688;2023-04-05T09:06:27;95332.38;;;9.51
32039;BMP280;18549;42.286;22.688;2023-04-05T09:08:56;95329.59;;;9.55
32039;BMP280;18549;42.286;22.688;2023-04-05T09:11:24;95335.03;;;9.60
32039;BMP280;18549;42.286;22.688;2023-04-05T09:13:51;95335.91;;;9.47
32039;BMP280;18549;42.286;22.688;2023-04-05T09:16:18;95330.78;;;9.50
32039;BMP280;18549;42.286;22.688;2023-04-05T09:18:45;95327.81;;;9.57
32039;BMP280;18549;42.286;22.688;2023-04-05T09:21:13;95330.88;;;9.60
32039;BMP280;18549;42.286;22.688;2023-04-05T09:23:50;95327.53;;;9.61
32039;BMP280;18549;42.286;22.688;2023-04-05T09:26:18;95328.22;;;9.63
32039;BMP280;18549;42.286;22.688;2023-04-05T09:28:47;95332.38;;;9.63
32039;BMP280;18549;42.286;22.688;2023-04-05T09:31:35;95321.09;;;9.59
32039;BMP280;18549;42.286;22.688;2023-04-05T09:34:03;95324.06;;;9.64
32039;BMP280;18549;42.286;22.688;2023-04-05T09:36:32;95329.13;;;9.75
32039;BMP280;18549;42.286;22.688;2023-04-05T09:39:04;95327.22;;;9.78
32039;BMP280;18549;42.286;22.688;2023-04-05T09:41:31;95328.59;;;9.70
32039;BMP280;18549;42.286;22.688;2023-04-05T09:43:59;95326.63;;;9.62
32039;BMP280;18549;42.286;22.688;2023-04-05T09:46:31;95323.47;;;9.73
32039;BMP280;18549;42.286;22.688;2023-04-05T09:48:59;95315.34;;;9.58
32039;BMP280;18549;42.286;22.688;2023-04-05T09:51:32;95314.56;;;9.70
32039;BMP280;18549;42.286;22.688;2023-04-05T09:54:00;95312.78;;;9.85
32039;BMP280;18549;42.286;22.688;2023-04-05T09:56:29;95308.91;;;9.81
32039;BMP280;18549;42.286;22.688;2023-04-05T09:59:01;95306.84;;;9.87
32039;BMP280;18549;42.286;22.688;2023-04-05T10:01:31;95317.38;;;9.90
32039;BMP280;18549;42.286;22.688;2023-04-05T10:03:59;95313.91;;;9.93
32039;BMP280;18549;42.286;22.688;2023-04-05T10:06:36;95308.44;;;10.00
32039;BMP280;18549;42.286;22.688;2023-04-05T10:09:04;95308.66;;;9.97
32039;BMP280;18549;42.286;22.688;2023-04-05T10:11:31;95310.75;;;9.91
32039;BMP280;18549;42.286;22.688;2023-04-05T10:14:02;95307.28;;;9.93
32039;BMP280;18549;42.286;22.688;2023-04-05T10:16:31;95300.53;;;9.95
32039;BMP280;18549;42.286;22.688;2023-04-05T10:18:59;95305.75;;;10.03
32039;BMP280;18549;42.286;22.688;2023-04-05T10:21:29;95300.13;;;10.14
32039;BMP280;18549;42.286;22.688;2023-04-05T10:24:04;95306.06;;;10.11
32039;BMP280;18549;42.286;22.688;2023-04-05T10:26:39;95292.88;;;10.23
32039;BMP280;18549;42.286;22.688;2023-04-05T10:29:11;95293.75;;;10.22
32039;BMP280;18549;42.286;22.688;2023-04-05T10:31:49;95290.00;;;10.17
32039;BMP280;18549;42.286;22.688;2023-04-05T10:34:26;95286.53;;;10.19
32039;BMP280;18549;42.286;22.688;2023-04-05T10:36:57;95293.13;;;10.31
32039;BMP280;18549;42.286;22.688;2023-04-05T10:39:27;95294.00;;;10.42
32039;BMP280;18549;42.286;22.688;2023-04-05T10:41:59;95291.53;;;10.42
32039;BMP280;18549;42.286;22.688;2023-04-05T10:44:31;95290.75;;;10.42
32039;BMP280;18549;42.286;22.688;2023-04-05T10:46:59;95300.25;;;10.35
32039;BMP280;18549;42.286;22.688;2023-04-05T10:49:35;95293.06;;;10.20
32039;BMP280;18549;42.286;22.688;2023-04-05T10:52:03;95294.16;;;10.16
32039;BMP280;18549;42.286;22.688;2023-04-05T10:54:32;95294.34;;;10.25
32039;BMP280;18549;42.286;22.688;2023-04-05T10:57:04;95289.28;;;10.27
32039;BMP280;18549;42.286;22.688;2023-04-05T10:59:34;95293.97;;;10.19
32039;BMP280;18549;42.286;22.688;2023-04-05T11:02:04;95292.09;;;10.22
32039;BMP280;18549;42.286;22.688;2023-04-05T11:04:32;95295.34;;;10.23
32039;BMP280;18549;42.286;22.688;2023-04-05T11:07:13;95297.00;;;10.35
32039;BMP280;18549;42.286;22.688;2023-04-05T11:09:50;95289.44;;;10.49
32039;BMP280;18549;42.286;22.688;2023-04-05T11:12:18;95293.97;;;10.54
32039;BMP280;18549;42.286;22.688;2023-04-05T11:14:46;95291.06;;;10.60
32039;BMP280;18549;42.286;22.688;2023-04-05T11:17:24;95299.78;;;10.66
32039;BMP280;18549;42.286;22.688;2023-04-05T11:20:01;95294.50;;;10.70
32039;BMP280;18549;42.286;22.688;2023-04-05T11:22:29;95279.59;;;10.59
32039;BMP280;18549;42.286;22.688;2023-04-05T11:24:57;95288.75;;;10.47
32039;BMP280;18549;42.286;22.688;2023-04-05T11:27:27;95289.16;;;10.41
32039;BMP280;18549;42.286;22.688;2023-04-05T11:29:57;95284.13;;;10.30
32039;BMP280;18549;42.286;22.688;2023-04-05T11:32:37;95289.47;;;10.36
32039;BMP280;18549;42.286;22.688;2023-04-05T11:35:05;95290.56;;;10.20
32039;BMP280;18549;42.286;22.688;2023-04-05T11:38:06;95293.75;;;10.34
32039;BMP280;18549;42.286;22.688;2023-04-05T11:40:37;95289.66;;;10.33
32039;BMP280;18549;42.286;22.688;2023-04-05T11:43:06;95286.88;;;10.38
32039;BMP280;18549;42.286;22.688;2023-04-05T11:45:36;95300.88;;;10.39
32039;BMP280;18549;42.286;22.688;2023-04-05T11:48:05;95289.25;;;10.39
32039;BMP280;18549;42.286;22.688;2023-04-05T11:50:35;95283.84;;;10.34
32039;BMP280;18549;42.286;22.688;2023-04-05T11:53:12;95289.16;;;10.41
32039;BMP280;18549;42.286;22.688;2023-04-05T11:55:41;95289.03;;;10.54
32039;BMP280;18549;42.286;22.688;2023-04-05T11:58:15;95278.47;;;10.63
32039;BMP280;18549;42.286;22.688;2023-04-05T12:00:44;95276.03;;;10.74
32039;BMP280;18549;42.286;22.688;2023-04-05T12:03:13;95279.00;;;10.79
32039;BMP280;18549;42.286;22.688;2023-04-05T12:05:50;95274.25;;;10.76
32039;BMP280;18549;42.286;22.688;2023-04-05T12:08:17;95277.19;;;10.81
32039;BMP280;18549;42.286;22.688;2023-04-05T12:10:44;95267.28;;;10.81
32039;BMP280;18549;42.286;22.688;2023-04-05T12:13:26;95269.03;;;10.68
32039;BMP280;18549;42.286;22.688;2023-04-05T12:15:56;95270.91;;;10.42
32039;BMP280;18549;42.286;22.688;2023-04-05T12:18:24;95270.91;;;10.42
32039;BMP280;18549;42.286;22.688;2023-04-05T12:20:51;95271.31;;;10.36
32039;BMP280;18549;42.286;22.688;2023-04-05T12:23:21;95264.78;;;10.35
32039;BMP280;18549;42.286;22.688;2023-04-05T12:25:49;95264.72;;;10.36
32039;BMP280;18549;42.286;22.688;2023-04-05T12:28:16;95260.22;;;10.41
32039;BMP280;18549;42.286;22.688;2023-04-05T12:30:50;95263.00;;;10.37
32039;BMP280;18549;42.286;22.688;2023-04-05T12:33:28;95266.38;;;10.36
32039;BMP280;18549;42.286;22.688;2023-04-05T12:35:56;95274.94;;;10.20
32039;BMP280;18549;42.286;22.688;2023-04-05T12:38:27;95272.97;;;10.12
32039;BMP280;18549;42.286;22.688;2023-04-05T12:40:58;95269.59;;;10.13
32039;BMP280;18549;42.286;22.688;2023-04-05T12:43:25;95277.88;;;10.24
32039;BMP280;18549;42.286;22.688;2023-04-05T12:45:52;95280.78;;;10.19
32039;BMP280;18549;42.286;22.688;2023-04-05T12:48:22;95280.56;;;10.21
32039;BMP280;18549;42.286;22.688;2023-04-05T12:50:51;95286.66;;;10.05
32039;BMP280;18549;42.286;22.688;2023-04-05T12:53:20;95274.75;;;10.10
32039;BMP280;18549;42.286;22.688;2023-04-05T12:55:49;95278.19;;;10.20
32039;BMP280;18549;42.286;22.688;2023-04-05T12:58:17;95282.66;;;10.27
32039;BMP280;18549;42.286;22.688;2023-04-05T13:00:44;95277.50;;;10.30
32039;BMP280;18549;42.286;22.688;2023-04-05T13:03:15;95271.22;;;10.37
32039;BMP280;18549;42.286;22.688;2023-04-05T13:05:44;95267.53;;;10.43
32039;BMP280;18549;42.286;22.688;2023-04-05T13:08:13;95259.22;;;10.44
32039;BMP280;18549;42.286;22.688;2023-04-05T13:10:40;95270.50;;;10.48
32039;BMP280;18549;42.286;22.688;2023-04-05T13:13:07;95268.91;;;10.47
32039;BMP280;18549;42.286;22.688;2023-04-05T13:15:34;95266.13;;;10.51
32039;BMP280;18549;42.286;22.688;2023-04-05T13:18:01;95272.69;;;10.40
32039;BMP280;18549;42.286;22.688;2023-04-05T13:20:28;95278.69;;;10.25
32039;BMP280;18549;42.286;22.688;2023-04-05T13:22:55;95281.50;;;10.08
32039;BMP280;18549;42.286;22.688;2023-04-05T13:25:24;95286.47;;;9.96
32039;BMP280;18549;42.286;22.688;2023-04-05T13:27:50;95285.88;;;9.92
32039;BMP280;18549;42.286;22.688;2023-04-05T13:30:17;95294.66;;;9.72
32039;BMP280;18549;42.286;22.688;2023-04-05T13:32:44;95285.06;;;9.67
32039;BMP280;18549;42.286;22.688;2023-04-05T13:35:11;95295.84;;;9.66
32039;BMP280;18549;42.286;22.688;2023-04-05T13:37:37;95296.66;;;9.79
32039;BMP280;18549;42.286;22.688;2023-04-05T13:40:06;95290.81;;;9.80
32039;BMP280;18549;42.286;22.688;2023-04-05T13:42:34;95289.00;;;9.70
32039;BMP280;18549;42.286;22.688;2023-04-05T13:45:01;95296.56;;;9.68
32039;BMP280;18549;42.286;22.688;2023-04-05T13:47:28;95294.66;;;9.72
32039;BMP280;18549;42.286;22.688;2023-04-05T13:49:55;95303.47;;;9.76
32039;BMP280;18549;42.286;22.688;2023-04-05T13:52:22;95297.81;;;9.74
32039;BMP280;18549;42.286;22.688;2023-04-05T13:54:50;95306.25;;;9.71
32039;BMP280;18549;42.286;22.688;2023-04-05T13:57:17;95299.31;;;9.64
32039;BMP280;18549;42.286;22.688;2023-04-05T13:59:45;95307.25;;;9.56
32039;BMP280;18549;42.286;22.688;2023-04-05T14:02:12;95310.59;;;9.55
32039;BMP280;18549;42.286;22.688;2023-04-05T14:04:39;95313.84;;;9.56
32039;BMP280;18549;42.286;22.688;2023-04-05T14:07:06;95312.38;;;9.53
32039;BMP280;18549;42.286;22.688;2023-04-05T14:09:33;95313.97;;;9.54
32039;BMP280;18549;42.286;22.688;2023-04-05T14:12:00;95323.38;;;9.62
32039;BMP280;18549;42.286;22.688;2023-04-05T14:14:29;95320.28;;;9.58
32039;BMP280;18549;42.286;22.688;2023-04-05T14:16:57;95322.28;;;9.66